Search for airport 
image banner adimage banner adimage banner ad
image banner ad

CA323 - Mount Flett (Cbn6)

Located in , Canada

ICAO - , IATA -

Data provided by Airmate  

General information

Coordinates: N60°39'60" W123°36'0"
Elevation is feet MSL.
 
View others Airports in Northwest Territories

Operational data

Special qualification required
Current time UTC:
Current local time:
Weather at : CYJF - Fort Liard ( 48 km )
METAR: CYJF 221600Z 07019KT 12SM FEW006 BKN110 BKN200 OVC220 M01/M02 A2948 RMK ST2AC3CI2CS1 BR SLP996
View NOTAMs / SUP AIP / TFR affecting this airport [VIEW]
Communications frequencies: [VIEW]

Runways:

Airport contact information

Address: Canada

Satellite view of CA323